Time;durP1;ratioP1;P1;durP2;ratioP2;P2;SDS_P1;SDS_P2;PMS_P1;PMS_P2;Temp;Humidity;BMP_temperature;BMP_pressure;BME280_temperature;BME280_humidity;BME280_pressure;Samples;Min_cycle;Max_cycle;Signal;HPM_P1;HPM_P2
2021/09/03 00:01:53;;;;;;;6.40;3.10;;;;;;;14.97;54.28;100897.09;117416;1182;23465;-62
2021/09/03 00:04:21;;;;;;;8.10;2.20;;;;;;;14.95;54.27;100898.02;117275;1184;21861;-57
2021/09/03 00:06:49;;;;;;;4.90;2.10;;;;;;;14.94;54.29;100900.34;117194;1185;23459;-62
2021/09/03 00:09:17;;;;;;;4.60;2.10;;;;;;;14.90;54.25;100900.08;117381;1182;23469;-63
2021/09/03 00:11:46;;;;;;;3.20;1.70;;;;;;;14.88;54.36;100897.65;117364;1183;21845;-62
2021/09/03 00:14:14;;;;;;;6.20;2.30;;;;;;;14.88;54.37;100900.83;117318;1185;22619;-57
2021/09/03 00:16:53;;;;;;;4.90;2.10;;;;;;;14.88;54.25;100901.53;117349;1183;23581;-57
2021/09/03 00:19:35;;;;;;;6.90;2.60;;;;;;;14.84;54.44;100901.43;117353;1184;23466;-62
2021/09/03 00:22:03;;;;;;;5.70;2.10;;;;;;;14.75;54.52;100906.06;117409;1184;21864;-57
2021/09/03 00:24:31;;;;;;;5.80;2.10;;;;;;;14.71;54.54;100910.20;117386;1185;21855;-57
2021/09/03 00:27:00;;;;;;;4.40;2.10;;;;;;;14.67;54.58;100907.05;117319;1186;23504;-62
2021/09/03 00:29:32;;;;;;;4.90;2.20;;;;;;;14.65;54.70;100904.63;117304;1184;22535;-57
2021/09/03 00:32:00;;;;;;;5.90;2.50;;;;;;;14.63;54.71;100909.80;117393;1185;21844;-63
2021/09/03 00:34:29;;;;;;;5.20;2.30;;;;;;;14.59;54.75;100915.33;117396;1179;23567;-63
2021/09/03 00:36:57;;;;;;;4.00;1.80;;;;;;;14.58;54.73;100918.73;117261;1186;22911;-57
2021/09/03 00:39:26;;;;;;;5.10;2.00;;;;;;;14.56;54.77;100921.08;117348;1185;21858;-57
2021/09/03 00:41:54;;;;;;;5.80;2.10;;;;;;;14.54;54.75;100923.77;117451;1185;21848;-62
2021/09/03 00:44:22;;;;;;;7.60;2.80;;;;;;;14.53;54.81;100922.71;117356;1185;21869;-65
2021/09/03 00:46:50;;;;;;;6.30;2.60;;;;;;;14.51;54.93;100928.05;117314;1185;23470;-65
2021/09/03 00:49:19;;;;;;;4.80;2.10;;;;;;;14.48;54.75;100928.10;117387;1182;23442;-64
2021/09/03 00:51:47;;;;;;;5.30;2.70;;;;;;;14.48;54.81;100923.34;117415;1186;21856;-59
2021/09/03 00:54:15;;;;;;;5.90;2.60;;;;;;;14.47;54.78;100922.31;117373;1184;23452;-65
2021/09/03 00:56:44;;;;;;;5.70;2.40;;;;;;;14.46;54.79;100921.96;117397;1184;22593;-58
2021/09/03 00:59:13;;;;;;;6.60;2.20;;;;;;;14.44;54.78;100925.35;117232;1186;21843;-59
2021/09/03 01:01:41;;;;;;;4.40;2.30;;;;;;;14.43;54.87;100923.62;117404;1183;22978;-59
2021/09/03 01:04:09;;;;;;;7.50;2.40;;;;;;;14.45;54.87;100924.12;117364;1181;21857;-64
2021/09/03 01:06:57;;;;;;;5.20;2.20;;;;;;;14.44;54.81;100921.13;117189;1183;23468;-65
2021/09/03 01:09:25;;;;;;;6.50;2.30;;;;;;;14.39;54.83;100918.22;117410;1185;23472;-65
2021/09/03 01:11:58;;;;;;;4.70;2.10;;;;;;;14.35;54.97;100918.83;117450;1185;23439;-65
2021/09/03 01:14:27;;;;;;;7.50;2.10;;;;;;;14.32;54.80;100926.13;117415;1183;21844;-59
2021/09/03 01:16:58;;;;;;;6.70;2.20;;;;;;;14.28;54.97;100928.67;117415;1185;21854;-65
2021/09/03 01:19:27;;;;;;;4.50;2.00;;;;;;;14.25;54.82;100933.30;117436;1185;23439;-65
2021/09/03 01:21:55;;;;;;;7.20;1.90;;;;;;;14.25;54.81;100932.44;117401;1185;23466;-59
2021/09/03 01:24:23;;;;;;;4.30;2.00;;;;;;;14.27;54.78;100938.21;117318;1185;21845;-64
2021/09/03 01:26:51;;;;;;;5.90;1.90;;;;;;;14.24;54.87;100937.91;117399;1185;21855;-64
2021/09/03 01:29:19;;;;;;;6.60;2.20;;;;;;;14.20;54.81;100940.98;117385;1183;23466;-59
2021/09/03 01:31:48;;;;;;;3.80;1.90;;;;;;;14.19;54.78;100942.95;117384;1185;21855;-64
2021/09/03 01:34:16;;;;;;;7.80;2.60;;;;;;;14.13;54.90;100939.54;117291;1186;23360;-65
2021/09/03 01:36:44;;;;;;;4.40;1.80;;;;;;;14.10;55.06;100936.59;117342;1185;21896;-64
2021/09/03 01:39:12;;;;;;;6.10;2.00;;;;;;;14.07;54.95;100934.52;117395;1185;23563;-58
2021/09/03 01:41:40;;;;;;;4.20;1.70;;;;;;;14.06;54.95;100927.66;117350;1186;23538;-59
2021/09/03 01:44:10;;;;;;;4.20;2.00;;;;;;;13.89;55.36;100927.08;117393;1185;23439;-59
2021/09/03 01:46:38;;;;;;;3.00;1.50;;;;;;;13.87;55.38;100932.95;117387;1185;21860;-59
2021/09/03 01:49:07;;;;;;;3.90;1.80;;;;;;;13.95;55.15;100930.84;117352;1185;21869;-65
2021/09/03 01:51:35;;;;;;;5.80;2.00;;;;;;;13.90;55.18;100932.34;117325;1185;21863;-57
2021/09/03 01:54:03;;;;;;;6.50;2.30;;;;;;;13.87;55.30;100935.59;117336;1181;21862;-57
2021/09/03 01:56:31;;;;;;;4.00;1.60;;;;;;;13.84;55.07;100939.52;117429;1185;21945;-62
2021/09/03 01:59:00;;;;;;;4.80;1.60;;;;;;;13.80;55.12;100941.69;117503;1185;23440;-57
2021/09/03 02:01:28;;;;;;;4.50;1.90;;;;;;;13.75;55.05;100946.70;117421;1185;21870;-59
2021/09/03 02:03:58;;;;;;;4.90;2.30;;;;;;;13.64;54.87;100949.71;117274;1182;21850;-57
2021/09/03 02:06:26;;;;;;;7.00;2.30;;;;;;;13.50;55.12;100946.20;117358;1185;21851;-57
2021/09/03 02:08:55;;;;;;;5.00;2.30;;;;;;;13.40;55.09;100942.30;117398;1185;22014;-57
2021/09/03 02:11:23;;;;;;;5.90;2.20;;;;;;;13.34;55.11;100942.37;117415;1185;23462;-57
2021/09/03 02:14:11;;;;;;;5.50;2.30;;;;;;;13.32;55.35;100947.34;117223;1186;21954;-62
2021/09/03 02:16:40;;;;;;;6.60;2.40;;;;;;;13.29;55.47;100951.08;117410;1185;23437;-62
2021/09/03 02:19:08;;;;;;;8.30;2.90;;;;;;;13.24;55.30;100956.09;117607;1185;21842;-62
2021/09/03 02:21:37;;;;;;;5.40;2.20;;;;;;;13.16;55.30;100956.73;117329;1182;22834;-57
2021/09/03 02:24:05;;;;;;;8.20;2.90;;;;;;;13.07;55.53;100956.84;117356;1186;21894;-65
2021/09/03 02:26:34;;;;;;;6.30;2.50;;;;;;;13.03;55.60;100955.32;117407;1184;23439;-65
2021/09/03 02:29:02;;;;;;;5.90;2.60;;;;;;;13.00;55.77;100959.94;117328;1185;21867;-57
2021/09/03 02:31:30;;;;;;;6.40;2.80;;;;;;;12.96;55.67;100956.82;117375;1185;21852;-56
2021/09/03 02:33:59;;;;;;;5.60;2.00;;;;;;;12.93;55.85;100953.69;117350;1186;21856;-63
2021/09/03 02:36:27;;;;;;;5.60;2.60;;;;;;;12.91;55.84;100953.00;117498;1179;21856;-63
2021/09/03 02:38:55;;;;;;;6.10;2.50;;;;;;;12.91;55.89;100952.81;117312;1185;23460;-63
2021/09/03 02:41:23;;;;;;;5.50;2.50;;;;;;;12.92;55.90;100948.59;117462;1183;21854;-62
2021/09/03 02:43:54;;;;;;;;;;;;;;;12.90;56.01;100952.84;117397;1185;22055;-63
2021/09/03 02:46:22;;;;;;;3.80;2.10;;;;;;;12.90;56.01;100950.90;117338;1186;21855;-56
2021/09/03 02:48:51;;;;;;;6.40;2.70;;;;;;;12.89;55.79;100953.20;117390;1183;23475;-57
2021/09/03 02:51:40;;;;;;;6.00;2.50;;;;;;;12.88;56.07;100955.85;117408;1186;22916;-63
2021/09/03 02:54:08;;;;;;;12.50;2.60;;;;;;;12.87;56.08;100954.45;117397;1183;21841;-62
2021/09/03 02:56:39;;;;;;;6.80;2.30;;;;;;;12.86;56.11;100954.83;117380;1182;24147;-63
2021/09/03 02:59:07;;;;;;;9.60;3.40;;;;;;;12.85;56.20;100947.79;117380;1185;23440;-57
2021/09/03 03:01:35;;;;;;;10.70;2.70;;;;;;;12.85;56.28;100946.92;117280;1186;21865;-61
2021/09/03 03:04:04;;;;;;;5.30;2.10;;;;;;;12.84;56.12;100945.87;117364;1183;23541;-56
2021/09/03 03:06:32;;;;;;;6.00;2.60;;;;;;;12.85;56.18;100946.39;117381;1186;21852;-56
2021/09/03 03:09:00;;;;;;;7.10;2.40;;;;;;;12.87;56.09;100946.17;117381;1184;23460;-57
2021/09/03 03:11:41;;;;;;;7.70;2.60;;;;;;;12.87;56.27;100946.01;117411;1185;23442;-62
2021/09/03 03:14:26;;;;;;;6.40;3.00;;;;;;;12.87;56.17;100945.64;117477;1185;23505;-62
2021/09/03 03:16:55;;;;;;;7.40;2.60;;;;;;;12.86;56.10;100943.91;117399;1185;22921;-57
2021/09/03 03:19:24;;;;;;;5.30;2.50;;;;;;;12.83;56.37;100942.55;117403;1186;21855;-56
2021/09/03 03:21:53;;;;;;;10.60;2.70;;;;;;;12.78;56.16;100944.36;117463;1185;23503;-62
2021/09/03 03:24:21;;;;;;;26.40;15.20;;;;;;;12.70;56.27;100944.63;117401;1186;23466;-56
2021/09/03 03:26:50;;;;;;;7.40;4.40;;;;;;;12.63;56.52;100943.48;117386;1185;21844;-57
2021/09/03 03:29:19;;;;;;;6.90;3.10;;;;;;;12.60;56.61;100944.73;117356;1186;23465;-57
2021/09/03 03:31:47;;;;;;;7.00;2.80;;;;;;;12.58;56.53;100946.36;117152;1186;22910;-56
2021/09/03 03:34:15;;;;;;;6.70;2.80;;;;;;;12.56;56.74;100945.86;117373;1185;21866;-61
2021/09/03 03:37:02;;;;;;;10.80;3.30;;;;;;;12.53;56.69;100951.34;117369;1182;24163;-62
2021/09/03 03:39:32;;;;;;;8.40;3.70;;;;;;;12.48;56.70;100960.20;117380;1186;24233;-62
2021/09/03 03:42:07;;;;;;;12.60;3.60;;;;;;;12.48;56.75;100955.45;117375;1185;22703;-62
2021/09/03 03:44:37;;;;;;;11.60;3.00;;;;;;;12.52;56.94;100951.88;117332;1186;23471;-62
2021/09/03 03:47:20;;;;;;;7.20;3.10;;;;;;;12.56;56.87;100958.36;117423;1185;21853;-62
2021/09/03 03:49:48;;;;;;;15.40;2.80;;;;;;;12.58;56.76;100958.70;117439;1184;23442;-62
2021/09/03 03:52:18;;;;;;;12.70;3.10;;;;;;;12.61;56.65;100957.94;117465;1185;23537;-61
2021/09/03 03:54:46;;;;;;;10.50;3.60;;;;;;;12.65;56.75;100961.94;117437;1186;23462;-57
2021/09/03 03:57:14;;;;;;;13.20;3.90;;;;;;;12.72;56.83;100960.62;117394;1185;23544;-61
2021/09/03 03:59:43;;;;;;;13.40;3.70;;;;;;;12.77;56.80;100960.05;117305;1185;23469;-61
2021/09/03 04:02:11;;;;;;;18.30;4.30;;;;;;;12.80;56.77;100960.36;117415;1185;23472;-62
2021/09/03 04:04:39;;;;;;;11.10;3.40;;;;;;;12.81;56.78;100961.40;117229;1189;23474;-62
2021/09/03 04:07:08;;;;;;;12.50;3.80;;;;;;;12.81;56.96;100956.30;117400;1185;23457;-62
2021/09/03 04:09:36;;;;;;;10.30;3.80;;;;;;;12.87;56.94;100955.87;117368;1185;21864;-57
2021/09/03 04:12:05;;;;;;;9.30;3.70;;;;;;;12.95;56.94;100961.05;117418;1185;21852;-57
2021/09/03 04:14:33;;;;;;;8.60;3.30;;;;;;;12.99;56.87;100958.55;117391;1185;21854;-63
2021/09/03 04:17:01;;;;;;;10.50;3.40;;;;;;;13.04;57.03;100965.00;117392;1185;23475;-63
2021/09/03 04:19:29;;;;;;;16.20;4.20;;;;;;;13.08;57.09;100968.63;117379;1185;23557;-57
2021/09/03 04:21:58;;;;;;;12.50;4.00;;;;;;;13.15;57.15;100971.20;117565;1185;21987;-57
2021/09/03 04:24:26;;;;;;;12.40;4.40;;;;;;;13.21;57.27;100967.59;117492;1182;21849;-62
2021/09/03 04:26:56;;;;;;;17.30;4.90;;;;;;;13.29;57.21;100966.59;117494;1183;23452;-56
2021/09/03 04:29:24;;;;;;;14.30;4.30;;;;;;;13.38;57.34;100966.10;117373;1186;21857;-62
2021/09/03 04:31:53;;;;;;;21.50;6.10;;;;;;;13.47;57.23;100961.77;117320;1183;22627;-57
2021/09/03 04:34:22;;;;;;;19.80;6.80;;;;;;;13.58;57.29;100964.27;117406;1185;22914;-57
2021/09/03 04:36:50;;;;;;;15.10;6.60;;;;;;;13.66;57.15;100965.71;117350;1185;23468;-62
2021/09/03 04:39:18;;;;;;;16.80;6.20;;;;;;;13.76;57.22;100968.73;117327;1186;23441;-59
2021/09/03 04:41:46;;;;;;;38.00;6.30;;;;;;;13.81;57.36;100975.17;117415;1188;23461;-64
2021/09/03 04:44:15;;;;;;;19.10;4.40;;;;;;;13.95;57.25;100973.55;117397;1183;24172;-59
2021/09/03 04:46:59;;;;;;;15.30;4.50;;;;;;;14.10;57.29;100981.77;117404;1185;23490;-59
2021/09/03 04:49:28;;;;;;;10.90;3.90;;;;;;;14.22;57.23;100985.79;117335;1186;23471;-64
2021/09/03 04:51:56;;;;;;;11.10;3.60;;;;;;;14.33;57.00;100988.07;117318;1186;24154;-58
2021/09/03 04:54:24;;;;;;;8.90;3.40;;;;;;;14.45;57.03;100993.13;117355;1176;21855;-58
2021/09/03 04:56:53;;;;;;;8.50;3.30;;;;;;;14.58;57.05;100999.77;117335;1189;22762;-58
2021/09/03 04:59:21;;;;;;;11.80;3.70;;;;;;;14.76;56.94;100996.83;117312;1184;24154;-63
2021/09/03 05:01:49;;;;;;;10.90;3.10;;;;;;;14.91;56.78;100997.25;117377;1185;23466;-58
2021/09/03 05:04:18;;;;;;;6.30;2.70;;;;;;;15.05;56.81;100993.76;117333;1182;24162;-59
2021/09/03 05:07:06;;;;;;;9.80;3.50;;;;;;;15.21;56.64;100994.67;117324;1185;22901;-58
2021/09/03 05:09:35;;;;;;;44.40;5.40;;;;;;;15.33;56.40;100993.17;117250;1186;24179;-58
2021/09/03 05:12:04;;;;;;;188.40;14.30;;;;;;;15.46;56.63;100993.23;117430;1184;23494;-59
2021/09/03 05:14:32;;;;;;;152.40;15.00;;;;;;;15.52;56.52;100993.63;117314;1185;21872;-64
2021/09/03 05:17:01;;;;;;;119.80;11.80;;;;;;;15.61;56.74;100995.19;117357;1185;23544;-64
2021/09/03 05:19:30;;;;;;;80.60;8.40;;;;;;;15.77;56.95;100992.85;117260;1186;22973;-64
2021/09/03 05:22:18;;;;;;;145.20;11.20;;;;;;;16.00;56.67;101001.71;117319;1184;23747;-64
2021/09/03 05:24:46;;;;;;;17.70;3.10;;;;;;;16.28;56.20;101001.89;117316;1176;23478;-64
2021/09/03 05:27:14;;;;;;;13.10;3.30;;;;;;;16.47;55.91;101003.70;117200;1186;24141;-60
2021/09/03 05:29:42;;;;;;;27.90;4.00;;;;;;;16.65;55.75;101007.98;117512;1182;22645;-59
2021/09/03 05:32:11;;;;;;;12.00;2.50;;;;;;;16.73;55.74;101008.84;117271;1183;23563;-64
2021/09/03 05:34:39;;;;;;;11.40;2.90;;;;;;;16.99;55.25;101007.93;117375;1184;24141;-64
2021/09/03 05:37:07;;;;;;;11.80;2.70;;;;;;;17.21;55.14;101008.73;117327;1184;21848;-64
2021/09/03 05:39:36;;;;;;;11.70;2.60;;;;;;;17.34;54.88;101007.63;117375;1184;23557;-65
2021/09/03 05:42:06;;;;;;;8.30;2.40;;;;;;;17.46;54.54;101007.96;117275;1182;24133;-59
2021/09/03 05:44:34;;;;;;;5.80;2.30;;;;;;;17.59;54.40;101010.06;117383;1183;22914;-66
2021/09/03 05:47:03;;;;;;;11.70;2.90;;;;;;;17.70;54.34;101003.67;117432;1183;23442;-65
2021/09/03 05:49:31;;;;;;;8.40;2.90;;;;;;;17.82;54.17;101000.98;117369;1185;21864;-65
2021/09/03 05:51:59;;;;;;;8.70;2.40;;;;;;;17.93;54.03;101000.98;117303;1182;23534;-65
2021/09/03 05:54:28;;;;;;;12.60;3.10;;;;;;;18.07;53.99;101001.28;117309;1185;23545;-60
2021/09/03 05:56:56;;;;;;;10.60;3.80;;;;;;;18.18;53.80;101006.94;117318;1184;24152;-65
2021/09/03 05:59:25;;;;;;;10.60;3.80;;;;;;;18.28;53.28;101005.52;117325;1185;22994;-60
2021/09/03 06:01:53;;;;;;;10.20;3.30;;;;;;;18.30;53.58;101006.18;117227;1182;23545;-64
2021/09/03 06:04:22;;;;;;;9.50;3.60;;;;;;;18.40;53.49;101005.65;117408;1182;23445;-66
2021/09/03 06:06:51;;;;;;;9.80;3.30;;;;;;;18.50;52.98;101005.84;117511;1185;23465;-59
2021/09/03 06:09:24;;;;;;;8.00;3.40;;;;;;;18.53;52.36;101008.06;117312;1182;24469;-60
2021/09/03 06:11:54;;;;;;;6.40;3.30;;;;;;;18.54;52.28;101012.09;117322;1182;24169;-60
2021/09/03 06:14:23;;;;;;;7.20;3.00;;;;;;;18.58;52.54;101009.11;117341;1183;21904;-65
2021/09/03 06:16:51;;;;;;;22.10;3.90;;;;;;;18.68;53.09;101013.55;117443;1185;21844;-65
2021/09/03 06:19:20;;;;;;;8.20;3.30;;;;;;;18.89;53.07;101011.73;117453;1182;22817;-59
2021/09/03 06:21:48;;;;;;;6.40;2.70;;;;;;;19.14;52.97;101010.47;117393;1183;23561;-59
2021/09/03 06:24:34;;;;;;;7.60;2.80;;;;;;;19.37;52.90;101010.84;117290;1186;23544;-64
2021/09/03 06:27:07;;;;;;;7.20;2.50;;;;;;;19.63;52.32;101009.66;117453;1185;22969;-64
2021/09/03 06:29:45;;;;;;;6.40;2.90;;;;;;;19.82;52.08;101012.80;117358;1183;21864;-59
2021/09/03 06:32:20;;;;;;;9.00;3.10;;;;;;;20.00;51.54;101015.11;117258;1186;24160;-59
2021/09/03 06:34:56;;;;;;;9.90;2.80;;;;;;;20.12;50.60;101021.55;117343;1185;22093;-65
2021/09/03 06:37:26;;;;;;;7.30;2.30;;;;;;;20.18;50.88;101019.14;117413;1183;23544;-65
2021/09/03 06:39:55;;;;;;;6.40;2.80;;;;;;;20.29;51.12;101017.13;117415;1186;21873;-64
2021/09/03 06:42:24;;;;;;;6.00;2.60;;;;;;;20.36;51.33;101015.18;117322;1188;21863;-58
2021/09/03 06:44:52;;;;;;;6.10;2.50;;;;;;;20.61;50.48;101014.67;117444;1185;21853;-64
2021/09/03 06:47:20;;;;;;;6.50;2.60;;;;;;;20.72;50.17;101017.56;117242;1186;21857;-60
2021/09/03 06:49:48;;;;;;;7.40;2.50;;;;;;;20.84;50.30;101015.11;117346;1185;22084;-63
2021/09/03 06:52:16;;;;;;;9.70;2.80;;;;;;;20.93;49.59;101014.89;117348;1184;21870;-64
2021/09/03 06:54:44;;;;;;;5.70;1.90;;;;;;;20.98;49.67;101015.86;117370;1188;21854;-64
2021/09/03 06:57:13;;;;;;;5.80;2.40;;;;;;;21.12;49.41;101013.30;117399;1184;23475;-65
2021/09/03 06:59:41;;;;;;;13.10;3.10;;;;;;;21.24;49.10;101018.45;117349;1185;23586;-65
2021/09/03 07:02:12;;;;;;;6.60;2.30;;;;;;;21.37;49.38;101023.73;117353;1186;21839;-60
2021/09/03 07:04:41;;;;;;;6.30;2.50;;;;;;;21.49;48.72;101021.55;117331;1183;22259;-60
2021/09/03 07:07:10;;;;;;;7.30;2.00;;;;;;;21.56;48.94;101022.64;117374;1182;23563;-64
2021/09/03 07:09:54;;;;;;;5.80;2.10;;;;;;;21.68;48.97;101026.23;117252;1179;23548;-59
2021/09/03 07:12:23;;;;;;;7.00;1.90;;;;;;;21.90;49.14;101022.48;117312;1185;23466;-60
2021/09/03 07:14:52;;;;;;;4.80;2.00;;;;;;;22.20;48.76;101014.38;117342;1185;23626;-59
2021/09/03 07:17:21;;;;;;;5.80;2.00;;;;;;;22.48;48.49;101012.98;117359;1182;23590;-60
2021/09/03 07:19:49;;;;;;;3.80;1.70;;;;;;;22.71;47.95;101015.36;117329;1189;21859;-64
2021/09/03 07:22:17;;;;;;;9.80;2.00;;;;;;;22.88;47.96;101015.34;117360;1182;22005;-59
2021/09/03 07:24:46;;;;;;;5.20;2.10;;;;;;;23.04;47.36;101014.27;117356;1186;23481;-64
2021/09/03 07:27:14;;;;;;;6.50;1.70;;;;;;;23.14;46.90;101013.39;117366;1186;21861;-62
2021/09/03 07:29:43;;;;;;;7.00;1.70;;;;;;;23.23;47.12;101013.98;117406;1186;21854;-63
2021/09/03 07:32:11;;;;;;;7.70;1.60;;;;;;;23.41;46.87;101017.13;117444;1185;21855;-66
2021/09/03 07:34:40;;;;;;;12.60;1.40;;;;;;;23.55;46.01;101016.14;117387;1185;21863;-65
2021/09/03 07:37:08;;;;;;;2.30;1.40;;;;;;;23.68;45.50;101019.20;117460;1182;23448;-65
2021/09/03 07:39:36;;;;;;;3.40;1.10;;;;;;;23.75;45.56;101017.17;117367;1183;23465;-65
2021/09/03 07:42:05;;;;;;;4.40;1.70;;;;;;;23.72;44.70;101017.00;117295;1182;23496;-60
2021/09/03 07:44:33;;;;;;;10.50;2.10;;;;;;;23.61;44.62;101007.77;117423;1183;22001;-64
2021/09/03 07:47:13;;;;;;;8.80;2.00;;;;;;;23.58;45.17;101007.37;117367;1182;21845;-66
2021/09/03 07:49:41;;;;;;;5.10;1.40;;;;;;;23.69;45.38;101003.73;117337;1185;22628;-60
2021/09/03 07:52:09;;;;;;;4.70;1.20;;;;;;;23.81;45.32;101007.71;117399;1185;23438;-65
2021/09/03 07:54:38;;;;;;;4.00;1.10;;;;;;;23.86;44.58;101001.64;117340;1183;22452;-59
2021/09/03 07:57:06;;;;;;;4.20;1.30;;;;;;;23.91;44.67;100994.06;117312;1186;21855;-64
2021/09/03 07:59:34;;;;;;;4.90;1.10;;;;;;;24.11;45.04;100995.95;117241;1186;21857;-65
2021/09/03 08:02:03;;;;;;;2.40;1.00;;;;;;;24.37;44.38;100997.40;117265;1186;23465;-61
2021/09/03 08:04:33;;;;;;;3.50;1.10;;;;;;;24.61;43.31;100993.48;117402;1186;24148;-63
2021/09/03 08:07:13;;;;;;;5.20;1.30;;;;;;;24.86;43.10;100992.13;117234;1183;23548;-62
2021/09/03 08:09:42;;;;;;;5.30;1.80;;;;;;;25.09;43.11;100986.02;117376;1185;23624;-63
2021/09/03 08:12:14;;;;;;;3.20;1.40;;;;;;;25.37;43.05;100987.14;117325;1182;24142;-66
2021/09/03 08:15:04;;;;;;;3.10;0.90;;;;;;;25.59;42.49;100984.80;117344;1186;23677;-59
2021/09/03 08:17:33;;;;;;;;;;;;;;;25.65;42.04;100982.61;117383;1182;21845;-60
2021/09/03 08:20:03;;;;;;;3.30;1.90;;;;;;;25.92;42.13;100981.40;117317;1186;22080;-64
2021/09/03 08:22:33;;;;;;;3.60;1.90;;;;;;;25.71;40.87;100980.06;117432;1186;21954;-60
2021/09/03 08:25:02;;;;;;;4.80;1.60;;;;;;;25.57;41.46;100979.38;117294;1186;23461;-67
2021/09/03 08:27:31;;;;;;;3.60;1.10;;;;;;;25.61;40.88;100977.14;117393;1183;22177;-58
2021/09/03 08:30:11;;;;;;;2.50;1.30;;;;;;;25.65;41.03;100975.40;117353;1186;23529;-64
2021/09/03 08:32:39;;;;;;;2.80;0.90;;;;;;;25.73;40.86;100970.63;117484;1185;21855;-64
2021/09/03 08:35:07;;;;;;;2.00;0.80;;;;;;;25.80;41.02;100966.73;117380;1185;21854;-59
2021/09/03 08:37:37;;;;;;;4.20;1.00;;;;;;;25.91;40.80;100963.43;117445;1186;21893;-59
2021/09/03 08:40:06;;;;;;;3.30;1.00;;;;;;;26.01;40.42;100964.64;117390;1182;23461;-66
2021/09/03 08:42:36;;;;;;;3.40;1.40;;;;;;;26.28;41.55;100964.76;117374;1182;22908;-65
2021/09/03 08:45:06;;;;;;;3.90;1.20;;;;;;;26.14;40.51;100969.13;117273;1186;24164;-59
2021/09/03 08:47:37;;;;;;;2.90;1.00;;;;;;;26.06;40.34;100968.20;117323;1185;24145;-62
2021/09/03 08:50:07;;;;;;;2.70;1.10;;;;;;;26.08;40.55;100962.68;117290;1186;21858;-62
2021/09/03 08:52:35;;;;;;;2.60;0.70;;;;;;;26.17;40.45;100963.54;117376;1185;23653;-63
2021/09/03 08:55:05;;;;;;;3.60;1.10;;;;;;;26.35;40.21;100957.81;117333;1185;23462;-65
2021/09/03 08:57:33;;;;;;;3.30;0.80;;;;;;;26.50;39.98;100953.38;117225;1182;22648;-60
2021/09/03 09:00:22;;;;;;;2.70;1.00;;;;;;;26.62;39.77;100951.80;117357;1183;22618;-59
2021/09/03 09:03:07;;;;;;;4.20;1.00;;;;;;;26.68;39.68;100949.17;117407;1182;23278;-66
2021/09/03 09:05:56;;;;;;;2.40;1.10;;;;;;;26.79;39.42;100954.70;117425;1182;21848;-64
2021/09/03 09:08:26;;;;;;;3.00;1.20;;;;;;;26.69;37.88;100946.59;117387;1176;21930;-64
2021/09/03 09:11:01;;;;;;;8.00;1.60;;;;;;;26.35;38.37;100943.38;117488;1185;22960;-67
2021/09/03 09:13:30;;;;;;;4.70;1.20;;;;;;;26.29;38.79;100941.70;117367;1185;23464;-63
2021/09/03 09:16:09;;;;;;;2.80;1.10;;;;;;;26.44;39.00;100944.59;117331;1183;23465;-64
2021/09/03 09:18:44;;;;;;;5.00;1.20;;;;;;;26.87;40.17;100942.45;117360;1186;21860;-59
2021/09/03 09:21:28;;;;;;;19.00;2.40;;;;;;;26.91;39.58;100938.89;117389;1182;21854;-64
2021/09/03 09:24:14;;;;;;;5.80;1.40;;;;;;;26.89;38.63;100937.13;117305;1183;22830;-59
2021/09/03 09:26:52;;;;;;;8.50;2.00;;;;;;;26.92;37.26;100935.66;117454;1185;23465;-65
2021/09/03 09:29:26;;;;;;;3.20;1.00;;;;;;;26.86;37.91;100934.63;117554;1183;22644;-59
2021/09/03 09:31:55;;;;;;;4.00;1.30;;;;;;;26.76;38.14;100931.52;117421;1186;21854;-66
2021/09/03 09:34:33;;;;;;;3.40;1.20;;;;;;;26.67;37.60;100929.48;117423;1185;22333;-61
2021/09/03 09:37:10;;;;;;;4.00;1.20;;;;;;;26.65;38.12;100922.79;117352;1183;21857;-64
2021/09/03 09:39:49;;;;;;;3.20;1.00;;;;;;;26.73;38.33;100919.30;117373;1182;21855;-65
2021/09/03 09:42:32;;;;;;;3.80;1.20;;;;;;;26.90;38.75;100919.91;117357;1182;23942;-65
2021/09/03 09:45:11;;;;;;;2.20;0.80;;;;;;;27.15;38.79;100914.19;117537;1184;24166;-63
2021/09/03 09:47:41;;;;;;;3.00;0.80;;;;;;;27.38;37.49;100915.35;117521;1183;22092;-64
2021/09/03 09:50:28;;;;;;;3.40;0.90;;;;;;;27.36;37.88;100921.39;117342;1186;21864;-61
2021/09/03 09:53:09;;;;;;;7.10;1.00;;;;;;;27.68;38.91;100920.68;117163;1182;23475;-65
2021/09/03 09:55:38;;;;;;;5.00;1.50;;;;;;;27.67;36.16;100913.37;117423;1184;22623;-65
2021/09/03 09:58:06;;;;;;;6.20;1.50;;;;;;;27.54;36.50;100910.17;117459;1183;21955;-65
2021/09/03 10:00:35;;;;;;;1.60;0.70;;;;;;;27.58;37.36;100905.75;117447;1182;23566;-59
2021/09/03 10:03:05;;;;;;;3.00;1.00;;;;;;;27.84;37.49;100904.85;117461;1184;21867;-64
2021/09/03 10:05:34;;;;;;;5.10;1.40;;;;;;;28.07;36.19;100905.09;117146;1182;22320;-65
2021/09/03 10:08:03;;;;;;;3.80;0.90;;;;;;;28.09;35.55;100907.46;117418;1181;23458;-65
2021/09/03 10:10:33;;;;;;;3.10;1.30;;;;;;;28.05;36.10;100900.05;117393;1182;21901;-64
2021/09/03 10:13:02;;;;;;;2.60;1.10;;;;;;;27.99;36.16;100902.63;117370;1183;21867;-64
2021/09/03 10:15:32;;;;;;;2.40;0.90;;;;;;;27.90;36.49;100909.31;117322;1186;23466;-58
2021/09/03 10:18:20;;;;;;;3.10;1.00;;;;;;;27.83;36.61;100901.92;117290;1186;21860;-58
2021/09/03 10:21:00;;;;;;;4.90;0.90;;;;;;;27.78;36.32;100898.34;117205;1186;23619;-68
2021/09/03 10:23:55;;;;;;;16.00;1.50;;;;;;;27.68;36.39;100899.63;117396;1182;23556;-66
2021/09/03 10:26:26;;;;;;;3.80;1.10;;;;;;;27.52;36.08;100895.07;117282;1185;22625;-65
2021/09/03 10:29:17;;;;;;;2.20;0.80;;;;;;;27.27;36.25;100890.54;117303;1185;21857;-58
2021/09/03 10:32:03;;;;;;;4.50;1.40;;;;;;;27.07;36.51;100894.98;117309;1184;21860;-65
2021/09/03 10:34:45;;;;;;;4.10;1.20;;;;;;;27.02;36.60;100888.63;117398;1182;22873;-64
2021/09/03 10:37:18;;;;;;;3.00;1.40;;;;;;;26.89;36.66;100882.42;117386;1182;21854;-59
2021/09/03 10:39:55;;;;;;;2.40;1.30;;;;;;;26.94;36.44;100885.61;117293;1185;21908;-59
2021/09/03 10:42:48;;;;;;;2.60;1.30;;;;;;;26.89;35.88;100881.51;117403;1185;24297;-59
2021/09/03 10:45:34;;;;;;;1.80;0.80;;;;;;;26.80;35.19;100883.16;117455;1184;23547;-64
2021/09/03 10:48:03;;;;;;;3.40;1.00;;;;;;;26.74;34.62;100884.30;117295;1183;24162;-64
2021/09/03 10:50:53;;;;;;;2.90;1.20;;;;;;;26.76;35.94;100882.74;117426;1182;22917;-58
2021/09/03 10:53:24;;;;;;;3.50;1.60;;;;;;;27.26;36.78;100881.10;117405;1182;24152;-63
2021/09/03 10:55:59;;;;;;;3.80;1.10;;;;;;;27.50;36.09;100872.28;117402;1183;22896;-58
2021/09/03 10:58:37;;;;;;;4.10;1.40;;;;;;;27.75;36.25;100867.84;117324;1184;22915;-58
2021/09/03 11:01:14;;;;;;;5.50;1.70;;;;;;;28.04;35.28;100871.98;117280;1186;23601;-58
2021/09/03 11:03:49;;;;;;;2.60;1.00;;;;;;;28.25;35.47;100873.55;117459;1182;21864;-66
2021/09/03 11:06:27;;;;;;;4.30;1.50;;;;;;;28.49;34.89;100870.08;117334;1186;21874;-59
2021/09/03 11:09:23;;;;;;;8.90;2.10;;;;;;;28.63;34.81;100872.95;117337;1185;23544;-65
2021/09/03 11:12:07;;;;;;;8.00;2.70;;;;;;;28.63;34.82;100869.34;117340;1185;24164;-59
2021/09/03 11:14:35;;;;;;;3.30;1.80;;;;;;;28.58;34.90;100868.05;117931;1183;23471;-59
2021/09/03 11:17:05;;;;;;;4.70;1.70;;;;;;;28.62;36.26;100865.64;117384;1184;24226;-59
2021/09/03 11:19:54;;;;;;;9.20;1.70;;;;;;;28.80;36.18;100861.61;117304;1185;21882;-62
2021/09/03 11:22:23;;;;;;;4.20;1.30;;;;;;;28.76;35.09;100855.27;117348;1182;23468;-64
2021/09/03 11:24:53;;;;;;;17.60;1.90;;;;;;;28.81;34.88;100855.64;117484;1185;21855;-59
2021/09/03 11:27:23;;;;;;;8.50;1.60;;;;;;;28.85;34.41;100850.46;117326;1183;21964;-65
2021/09/03 11:29:56;;;;;;;5.80;1.40;;;;;;;28.86;34.50;100852.33;117267;1186;23861;-59
2021/09/03 11:32:28;;;;;;;4.00;1.60;;;;;;;28.83;34.51;100849.66;117234;1179;21855;-58
2021/09/03 11:35:03;;;;;;;2.50;1.20;;;;;;;28.73;34.77;100846.84;117225;1179;22989;-65
2021/09/03 11:37:41;;;;;;;3.60;1.50;;;;;;;28.62;34.82;100843.77;117321;1179;22907;-59